createdAt,value
2023-09-07T00:01:40.287Z,10.77
2023-09-07T00:04:07.843Z,13.60
2023-09-07T00:06:35.849Z,12.13
2023-09-07T00:09:06.647Z,11.63
2023-09-07T00:11:35.033Z,11.80
2023-09-07T00:14:02.169Z,12.60
2023-09-07T00:16:29.479Z,12.10
2023-09-07T00:18:57.050Z,11.67
2023-09-07T00:21:24.350Z,12.20
2023-09-07T00:23:51.505Z,11.70
2023-09-07T00:26:20.082Z,11.30
2023-09-07T00:28:47.676Z,12.10
2023-09-07T00:31:15.299Z,11.80
2023-09-07T00:33:42.538Z,12.10
2023-09-07T00:36:09.712Z,12.00
2023-09-07T00:38:36.902Z,12.23
2023-09-07T00:41:04.120Z,12.23
2023-09-07T00:43:31.461Z,12.50
2023-09-07T00:45:58.790Z,11.47
2023-09-07T00:48:26.189Z,11.70
2023-09-07T00:50:53.429Z,12.17
2023-09-07T00:53:20.841Z,13.50
2023-09-07T00:55:48.094Z,12.80
2023-09-07T00:58:15.667Z,12.90
2023-09-07T01:00:43.810Z,13.43
2023-09-07T01:03:11.310Z,11.47
2023-09-07T01:05:45.395Z,12.97
2023-09-07T01:08:16.947Z,12.70
2023-09-07T01:10:44.205Z,12.67
2023-09-07T01:13:11.546Z,13.93
2023-09-07T01:15:39.698Z,12.57
2023-09-07T01:18:23.519Z,12.57
2023-09-07T01:20:51.977Z,13.17
2023-09-07T01:23:19.308Z,14.83
2023-09-07T01:25:47.478Z,12.00
2023-09-07T01:28:16.404Z,13.47
2023-09-07T01:30:43.887Z,15.33
2023-09-07T01:33:11.602Z,13.40
2023-09-07T01:35:40.118Z,14.60
2023-09-07T01:38:07.582Z,13.23
2023-09-07T01:40:35.090Z,12.73
2023-09-07T01:43:02.255Z,11.97
2023-09-07T01:45:29.450Z,13.13
2023-09-07T01:47:56.713Z,14.20
2023-09-07T01:50:26.058Z,13.87
2023-09-07T01:52:53.315Z,14.90
2023-09-07T01:55:20.693Z,15.03
2023-09-07T01:57:47.922Z,14.77
2023-09-07T02:00:15.238Z,12.90
2023-09-07T02:02:42.840Z,14.27
2023-09-07T02:05:10.873Z,14.93
2023-09-07T02:07:38.272Z,17.13
2023-09-07T02:10:05.580Z,16.67
2023-09-07T02:12:32.873Z,16.90
2023-09-07T02:15:01.574Z,15.80
2023-09-07T02:17:28.941Z,16.80
2023-09-07T02:19:56.361Z,17.83
2023-09-07T02:22:23.669Z,16.20
2023-09-07T02:24:51.179Z,16.07
2023-09-07T02:27:18.533Z,16.43
2023-09-07T02:29:45.806Z,16.60
2023-09-07T02:32:13.486Z,15.87
2023-09-07T02:34:40.876Z,16.47
2023-09-07T02:37:08.231Z,15.83
2023-09-07T02:39:35.410Z,14.50
2023-09-07T02:42:02.949Z,16.67
2023-09-07T02:44:30.337Z,14.37
2023-09-07T02:46:57.736Z,17.03
2023-09-07T02:49:25.049Z,14.63
2023-09-07T02:51:53.687Z,15.47
2023-09-07T02:54:21.054Z,14.73
2023-09-07T02:56:48.305Z,16.67
2023-09-07T02:59:15.731Z,17.10
2023-09-07T03:01:43.398Z,17.10
2023-09-07T03:04:10.699Z,16.53
2023-09-07T03:06:38.419Z,16.93
2023-09-07T03:09:10.092Z,16.80
2023-09-07T03:11:38.817Z,15.70
2023-09-07T03:14:06.491Z,16.63
2023-09-07T03:16:34.016Z,18.43
2023-09-07T03:19:01.738Z,16.57
2023-09-07T03:21:30.846Z,16.60
2023-09-07T03:23:59.122Z,14.43
2023-09-07T03:26:27.504Z,16.43
2023-09-07T03:28:54.772Z,17.47
2023-09-07T03:31:22.474Z,17.87
2023-09-07T03:33:50.959Z,16.77
2023-09-07T03:36:19.317Z,17.83
2023-09-07T03:38:46.707Z,17.50
2023-09-07T03:41:16.750Z,16.33
2023-09-07T03:43:44.037Z,17.33
2023-09-07T03:46:11.536Z,18.17
2023-09-07T03:48:41.428Z,16.80
2023-09-07T03:51:09.623Z,16.97
2023-09-07T03:53:36.999Z,19.00
2023-09-07T03:56:07.374Z,18.37
2023-09-07T03:58:34.861Z,18.10
2023-09-07T04:01:02.449Z,19.17
2023-09-07T04:03:31.094Z,19.80
2023-09-07T04:05:58.566Z,18.00
2023-09-07T04:08:25.809Z,17.67
2023-09-07T04:10:53.081Z,18.40
2023-09-07T04:13:20.254Z,18.60
2023-09-07T04:15:47.705Z,19.13
2023-09-07T04:18:17.965Z,18.57
2023-09-07T04:20:46.162Z,19.93
2023-09-07T04:23:14.698Z,20.80
2023-09-07T04:25:42.124Z,18.23
2023-09-07T04:28:10.051Z,18.63
2023-09-07T04:30:41.074Z,19.30
2023-09-07T04:33:08.797Z,18.73
2023-09-07T04:35:38.017Z,19.30
2023-09-07T04:38:05.728Z,21.23
2023-09-07T04:40:33.181Z,19.97
2023-09-07T04:43:01.068Z,19.30
2023-09-07T04:45:28.566Z,19.63
2023-09-07T04:47:56.105Z,19.40
2023-09-07T04:50:23.416Z,19.83
2023-09-07T04:52:50.931Z,19.63
2023-09-07T04:55:18.237Z,19.33
2023-09-07T04:57:45.702Z,19.47
2023-09-07T05:00:13.382Z,20.53
2023-09-07T05:02:46.457Z,18.30
2023-09-07T05:05:13.746Z,19.80
2023-09-07T05:07:40.943Z,19.33
2023-09-07T05:10:09.872Z,18.73
2023-09-07T05:12:37.161Z,18.03
2023-09-07T05:15:05.843Z,18.70
2023-09-07T05:17:33.092Z,17.07
2023-09-07T05:20:00.418Z,17.47
2023-09-07T05:22:27.693Z,18.40
2023-09-07T05:24:56.063Z,16.63
2023-09-07T05:27:23.262Z,18.90
2023-09-07T05:29:50.656Z,17.37
2023-09-07T05:32:17.962Z,18.13
2023-09-07T05:34:45.312Z,15.80
2023-09-07T05:37:12.607Z,17.67
2023-09-07T05:39:40.408Z,16.87
2023-09-07T05:42:07.710Z,16.40
2023-09-07T05:44:34.898Z,14.93
2023-09-07T05:47:03.706Z,19.17
2023-09-07T05:49:31.649Z,16.70
2023-09-07T05:51:59.128Z,15.13
2023-09-07T05:54:27.111Z,15.27
2023-09-07T05:56:54.636Z,14.20
2023-09-07T05:59:21.939Z,14.80
2023-09-07T06:01:49.235Z,15.63
2023-09-07T06:04:16.583Z,14.37
2023-09-07T06:06:44.053Z,16.33
2023-09-07T06:09:11.668Z,15.47
2023-09-07T06:11:39.130Z,14.80
2023-09-07T06:14:08.069Z,15.30
2023-09-07T06:16:36.286Z,14.20
2023-09-07T06:19:03.793Z,14.47
2023-09-07T06:21:31.196Z,14.87
2023-09-07T06:23:58.378Z,15.00
2023-09-07T06:26:26.438Z,13.17
2023-09-07T06:28:53.696Z,13.50
2023-09-07T06:31:21.249Z,14.67
2023-09-07T06:33:48.864Z,14.17
2023-09-07T06:36:16.213Z,14.07
2023-09-07T06:38:44.118Z,13.17
2023-09-07T06:41:11.449Z,14.33
2023-09-07T06:43:39.465Z,12.80
2023-09-07T06:46:09.228Z,16.20
2023-09-07T06:48:36.870Z,13.63
2023-09-07T06:51:05.569Z,14.40
2023-09-07T06:53:53.531Z,12.80
2023-09-07T06:56:22.073Z,12.40
2023-09-07T06:58:49.870Z,12.60
2023-09-07T07:01:17.387Z,12.93
2023-09-07T07:03:45.130Z,13.50
2023-09-07T07:06:12.698Z,12.97
2023-09-07T07:08:40.348Z,12.00
2023-09-07T07:11:07.808Z,11.90
2023-09-07T07:13:35.874Z,11.43
2023-09-07T07:16:12.348Z,11.67
2023-09-07T07:21:21.917Z,10.23
2023-09-07T07:23:49.319Z,10.97
2023-09-07T07:26:17.350Z,13.03
2023-09-07T07:31:30.616Z,11.67
2023-09-07T07:33:57.864Z,10.23
2023-09-07T07:36:25.156Z,10.00
2023-09-07T07:38:52.661Z,9.70
2023-09-07T07:41:20.229Z,10.63
2023-09-07T07:43:47.768Z,9.07
2023-09-07T07:46:18.149Z,11.60
2023-09-07T07:48:46.219Z,8.93
2023-09-07T07:51:13.573Z,9.30
2023-09-07T07:53:43.367Z,9.70
2023-09-07T07:56:16.530Z,8.80
2023-09-07T07:58:44.363Z,9.85
2023-09-07T08:01:19.773Z,8.43
2023-09-07T08:03:48.243Z,9.38
2023-09-07T08:06:16.056Z,8.65
2023-09-07T08:08:43.510Z,7.80
2023-09-07T08:11:11.664Z,9.80
2023-09-07T08:13:41.123Z,7.70
2023-09-07T08:16:14.551Z,7.78
2023-09-07T08:18:43.044Z,9.93
2023-09-07T08:21:11.690Z,9.80
2023-09-07T08:23:39.243Z,9.15
2023-09-07T08:26:07.403Z,8.55
2023-09-07T08:28:35.154Z,8.20
2023-09-07T08:31:05.384Z,6.88
2023-09-07T08:33:37.028Z,7.90
2023-09-07T08:36:06.564Z,8.65
2023-09-07T08:38:34.150Z,6.68
2023-09-07T08:41:06.603Z,7.07
2023-09-07T08:43:41.853Z,6.38
2023-09-07T08:46:15.862Z,7.55
2023-09-07T08:48:48.009Z,6.85
2023-09-07T08:51:16.950Z,7.97
2023-09-07T08:53:47.360Z,8.27
2023-09-07T08:56:16.139Z,7.63
2023-09-07T08:58:46.129Z,7.60
2023-09-07T09:01:14.540Z,7.93
2023-09-07T09:03:43.957Z,6.82
2023-09-07T09:06:12.628Z,6.53
2023-09-07T09:08:47.210Z,6.78
2023-09-07T09:11:14.670Z,6.80
2023-09-07T09:13:42.784Z,7.25
2023-09-07T09:16:10.807Z,6.85
2023-09-07T09:18:39.291Z,7.07
2023-09-07T09:21:06.963Z,7.18
2023-09-07T09:23:38.209Z,6.65
2023-09-07T09:26:06.473Z,6.50
2023-09-07T09:28:34.982Z,8.50
2023-09-07T09:31:03.705Z,7.43
2023-09-07T09:33:37.061Z,6.18
2023-09-07T09:36:05.228Z,6.63
2023-09-07T09:38:33.802Z,6.43
2023-09-07T09:41:01.560Z,6.65
2023-09-07T09:43:28.789Z,6.35
2023-09-07T09:45:56.748Z,5.82
2023-09-07T09:48:24.621Z,8.95
2023-09-07T09:50:52.465Z,5.97
2023-09-07T09:53:21.577Z,6.90
2023-09-07T09:55:49.809Z,7.35
2023-09-07T09:58:17.917Z,13.48
2023-09-07T10:00:46.154Z,5.85
2023-09-07T10:03:27.630Z,6.30
2023-09-07T10:05:54.943Z,6.68
2023-09-07T10:08:24.387Z,6.03
2023-09-07T10:10:54.749Z,6.05
2023-09-07T10:13:32.225Z,6.07
2023-09-07T10:16:05.907Z,6.15
2023-09-07T10:18:37.057Z,5.78
2023-09-07T10:21:04.863Z,6.55
2023-09-07T10:23:39.463Z,5.68
2023-09-07T10:26:07.691Z,7.22
2023-09-07T10:28:35.195Z,5.20
2023-09-07T10:31:08.692Z,5.18
2023-09-07T10:33:37.815Z,9.48
2023-09-07T10:36:06.001Z,6.38
2023-09-07T10:38:37.030Z,7.32
2023-09-07T10:41:05.537Z,7.25
2023-09-07T10:43:34.653Z,6.25
2023-09-07T10:46:02.932Z,6.10
2023-09-07T10:48:32.027Z,7.80
2023-09-07T10:50:59.537Z,6.30
2023-09-07T10:53:31.828Z,11.15
2023-09-07T10:56:00.677Z,5.78
2023-09-07T10:58:30.988Z,7.07
2023-09-07T11:00:59.366Z,6.55
2023-09-07T11:03:28.358Z,10.43
2023-09-07T11:05:57.540Z,7.60
2023-09-07T11:08:25.084Z,7.57
2023-09-07T11:10:53.263Z,7.05
2023-09-07T11:13:20.645Z,9.95
2023-09-07T11:15:48.096Z,7.43
2023-09-07T11:18:15.451Z,5.80
2023-09-07T11:20:43.853Z,11.20
2023-09-07T11:23:11.285Z,6.22
2023-09-07T11:25:39.228Z,6.85
2023-09-07T11:28:07.389Z,5.57
2023-09-07T11:30:35.686Z,5.55
2023-09-07T11:33:03.778Z,5.28
2023-09-07T11:35:31.234Z,4.95
2023-09-07T11:37:58.541Z,6.07
2023-09-07T11:40:27.023Z,6.32
2023-09-07T11:42:54.534Z,7.35
2023-09-07T11:45:22.005Z,6.13
2023-09-07T11:47:49.435Z,5.03
2023-09-07T11:50:19.008Z,4.75
2023-09-07T11:52:46.768Z,4.97
2023-09-07T11:55:16.099Z,4.55
2023-09-07T11:57:44.005Z,4.72
2023-09-07T12:00:12.055Z,4.97
2023-09-07T12:02:42.838Z,6.30
2023-09-07T12:05:10.581Z,4.78
2023-09-07T12:07:38.374Z,5.55
2023-09-07T12:10:06.166Z,5.35
2023-09-07T12:12:33.367Z,6.72
2023-09-07T12:15:01.467Z,5.65
2023-09-07T12:17:28.776Z,4.72
2023-09-07T12:19:56.063Z,5.40
2023-09-07T12:22:23.328Z,4.72
2023-09-07T12:25:02.279Z,4.80
2023-09-07T12:27:52.592Z,6.78
2023-09-07T12:30:22.048Z,5.13
2023-09-07T12:32:49.913Z,5.38
2023-09-07T12:35:17.481Z,6.28
2023-09-07T12:37:44.756Z,5.30
2023-09-07T12:40:13.107Z,5.32
2023-09-07T12:42:44.116Z,5.22
2023-09-07T12:45:12.315Z,13.85
2023-09-07T12:47:40.222Z,5.10
2023-09-07T12:50:07.993Z,4.97
2023-09-07T12:52:39.261Z,5.38
2023-09-07T12:55:07.449Z,5.32
2023-09-07T12:57:35.605Z,4.65
2023-09-07T13:00:03.026Z,5.53
2023-09-07T13:02:30.394Z,7.43
2023-09-07T13:04:57.819Z,4.65
2023-09-07T13:07:25.086Z,5.00
2023-09-07T13:09:52.346Z,5.65
2023-09-07T13:12:20.216Z,5.32
2023-09-07T13:14:48.515Z,4.93
2023-09-07T13:17:16.305Z,5.32
2023-09-07T13:19:43.771Z,4.95
2023-09-07T13:22:11.488Z,6.13
2023-09-07T13:24:38.826Z,7.90
2023-09-07T13:27:06.287Z,4.88
2023-09-07T13:29:33.947Z,5.43
2023-09-07T13:32:01.389Z,4.88
2023-09-07T13:34:28.698Z,4.95
2023-09-07T13:36:56.463Z,4.45
2023-09-07T13:39:24.038Z,4.80
2023-09-07T13:41:51.265Z,8.05
2023-09-07T13:44:18.665Z,5.55
2023-09-07T13:46:46.336Z,4.72
2023-09-07T13:49:13.910Z,7.38
2023-09-07T13:51:44.302Z,5.55
2023-09-07T13:54:12.111Z,5.47
2023-09-07T13:56:39.873Z,5.15
2023-09-07T13:59:07.191Z,5.05
2023-09-07T14:01:34.565Z,8.52
2023-09-07T14:04:01.840Z,5.88
2023-09-07T14:06:29.210Z,5.53
2023-09-07T14:08:56.571Z,4.93
2023-09-07T14:11:24.726Z,6.75
2023-09-07T14:13:56.034Z,7.55
2023-09-07T14:16:24.192Z,5.88
2023-09-07T14:18:51.657Z,6.03
2023-09-07T14:21:19.210Z,5.40
2023-09-07T14:23:46.997Z,5.72
2023-09-07T14:26:14.678Z,5.85
2023-09-07T14:28:41.926Z,6.07
2023-09-07T14:31:09.607Z,5.90
2023-09-07T14:33:42.699Z,7.32
2023-09-07T14:36:10.459Z,7.35
2023-09-07T14:38:42.856Z,5.47
2023-09-07T14:41:20.275Z,8.40
2023-09-07T14:43:48.448Z,6.72
2023-09-07T14:46:15.984Z,8.35
2023-09-07T14:48:43.917Z,6.18
2023-09-07T14:51:11.595Z,6.28
2023-09-07T14:53:39.629Z,7.00
2023-09-07T14:56:07.311Z,6.30
2023-09-07T14:58:35.113Z,6.60
2023-09-07T15:01:02.538Z,7.18
2023-09-07T15:03:29.652Z,9.23
2023-09-07T15:05:56.968Z,6.55
2023-09-07T15:08:24.265Z,6.28
2023-09-07T15:10:51.766Z,6.22
2023-09-07T15:13:20.425Z,6.40
2023-09-07T15:15:47.731Z,7.20
2023-09-07T15:18:15.063Z,6.00
2023-09-07T15:20:42.727Z,7.10
2023-09-07T15:23:09.983Z,7.25
2023-09-07T15:25:37.216Z,6.57
2023-09-07T15:28:06.963Z,6.82
2023-09-07T15:30:34.137Z,6.75
2023-09-07T15:33:01.371Z,7.35
2023-09-07T15:35:28.659Z,7.10
2023-09-07T15:37:55.865Z,6.47
2023-09-07T15:40:23.022Z,9.57
2023-09-07T15:42:50.407Z,6.55
2023-09-07T15:45:17.830Z,8.48
2023-09-07T15:47:45.263Z,5.75
2023-09-07T15:50:12.808Z,8.88
2023-09-07T15:52:47.581Z,6.18
2023-09-07T15:55:15.402Z,5.93
2023-09-07T15:57:42.924Z,6.97
2023-09-07T16:00:10.414Z,6.45
2023-09-07T16:02:40.872Z,6.13
2023-09-07T16:05:09.132Z,6.25
2023-09-07T16:07:36.410Z,6.63
2023-09-07T16:10:03.841Z,6.85
2023-09-07T16:12:30.944Z,6.97
2023-09-07T16:14:58.208Z,5.95
2023-09-07T16:17:25.363Z,6.22
2023-09-07T16:19:53.450Z,6.25
2023-09-07T16:22:20.762Z,6.55
2023-09-07T16:24:48.133Z,6.07
2023-09-07T16:27:15.256Z,8.05
2023-09-07T16:29:44.767Z,6.55
2023-09-07T16:32:13.824Z,8.73
2023-09-07T16:34:42.053Z,6.40
2023-09-07T16:37:09.499Z,7.78
2023-09-07T16:39:36.820Z,6.55
2023-09-07T16:42:04.242Z,15.82
2023-09-07T16:44:31.617Z,6.93
2023-09-07T16:46:58.878Z,7.78
2023-09-07T16:49:26.478Z,6.13
2023-09-07T16:51:53.711Z,6.25
2023-09-07T16:54:21.158Z,6.75
2023-09-07T16:56:48.422Z,6.18
2023-09-07T16:59:46.174Z,7.65
2023-09-07T17:02:03.756Z,9.07
2023-09-07T17:04:35.015Z,7.43
2023-09-07T17:07:08.690Z,8.05
2023-09-07T17:09:36.786Z,7.32
2023-09-07T17:12:05.006Z,7.65
2023-09-07T17:14:33.138Z,6.57
2023-09-07T17:17:00.560Z,8.07
2023-09-07T17:19:32.239Z,8.50
2023-09-07T17:21:59.452Z,6.07
2023-09-07T17:24:26.829Z,6.95
2023-09-07T17:26:54.088Z,6.20
2023-09-07T17:29:21.683Z,5.95
2023-09-07T17:31:49.019Z,8.05
2023-09-07T17:34:16.238Z,10.02
2023-09-07T17:36:43.458Z,5.85
2023-09-07T17:39:10.675Z,6.57
2023-09-07T17:41:39.263Z,9.07
2023-09-07T17:44:06.598Z,5.95
2023-09-07T17:46:33.868Z,7.15
2023-09-07T17:49:01.116Z,5.80
2023-09-07T17:51:28.400Z,6.95
2023-09-07T17:53:56.087Z,9.23
2023-09-07T17:56:23.303Z,6.82
2023-09-07T17:58:50.503Z,7.80
2023-09-07T18:01:19.087Z,7.47
2023-09-07T18:03:46.906Z,7.65
2023-09-07T18:06:15.695Z,6.72
2023-09-07T18:08:43.418Z,6.55
2023-09-07T18:11:10.908Z,6.03
2023-09-07T18:13:38.462Z,11.55
2023-09-07T18:16:06.139Z,7.53
2023-09-07T18:18:36.057Z,7.35
2023-09-07T18:21:07.999Z,6.20
2023-09-07T18:23:36.086Z,7.35
2023-09-07T18:26:03.503Z,6.80
2023-09-07T18:28:32.414Z,7.00
2023-09-07T18:31:00.362Z,6.80
2023-09-07T18:33:27.871Z,9.63
2023-09-07T18:36:08.406Z,7.57
2023-09-07T18:38:36.093Z,6.30
2023-09-07T18:41:04.318Z,6.32
2023-09-07T18:43:32.135Z,6.50
2023-09-07T18:46:05.239Z,9.52
2023-09-07T18:48:32.894Z,7.57
2023-09-07T18:51:04.516Z,6.10
2023-09-07T18:53:32.598Z,6.60
2023-09-07T18:56:03.487Z,7.05
2023-09-07T18:58:31.115Z,5.85
2023-09-07T19:00:59.153Z,8.35
2023-09-07T19:03:26.733Z,5.88
2023-09-07T19:05:54.361Z,6.75
2023-09-07T19:08:23.480Z,7.40
2023-09-07T19:10:51.538Z,6.70
2023-09-07T19:13:19.080Z,11.73
2023-09-07T19:15:46.481Z,6.10
2023-09-07T19:18:25.441Z,6.65
2023-09-07T19:20:54.467Z,6.38
2023-09-07T19:23:24.497Z,6.63
2023-09-07T19:25:53.322Z,5.80
2023-09-07T19:28:20.607Z,6.30
2023-09-07T19:30:47.874Z,9.50
2023-09-07T19:33:15.430Z,8.23
2023-09-07T19:35:42.752Z,7.63
2023-09-07T19:38:11.164Z,6.93
2023-09-07T19:40:38.894Z,7.97
2023-09-07T19:43:06.109Z,7.75
2023-09-07T19:45:34.235Z,6.95
2023-09-07T19:48:01.600Z,6.57
2023-09-07T19:50:28.891Z,5.90
2023-09-07T19:52:58.202Z,7.57
2023-09-07T19:55:25.628Z,6.20
2023-09-07T19:57:52.894Z,8.90
2023-09-07T20:00:20.238Z,6.25
2023-09-07T20:02:47.679Z,7.30
2023-09-07T20:05:17.186Z,6.88
2023-09-07T20:07:44.612Z,7.68
2023-09-07T20:10:11.962Z,6.60
2023-09-07T20:12:39.349Z,6.38
2023-09-07T20:15:07.391Z,7.13
2023-09-07T20:17:36.399Z,8.38
2023-09-07T20:20:06.537Z,6.80
2023-09-07T20:22:37.120Z,6.72
2023-09-07T20:25:04.843Z,6.80
2023-09-07T20:27:32.136Z,9.02
2023-09-07T20:29:59.375Z,6.95
2023-09-07T20:32:26.575Z,6.57
2023-09-07T20:34:54.413Z,7.05
2023-09-07T20:37:21.576Z,9.07
2023-09-07T20:39:48.781Z,8.30
2023-09-07T20:42:16.465Z,10.32
2023-09-07T20:44:43.734Z,7.07
2023-09-07T20:47:10.949Z,8.57
2023-09-07T20:49:38.584Z,7.68
2023-09-07T20:52:06.450Z,6.95
2023-09-07T20:54:33.743Z,7.85
2023-09-07T20:57:01.102Z,8.38
2023-09-07T20:59:31.196Z,7.03
2023-09-07T21:01:58.447Z,7.70
2023-09-07T21:04:25.767Z,7.43
2023-09-07T21:06:53.027Z,9.00
2023-09-07T21:09:20.222Z,7.43
2023-09-07T21:11:47.685Z,6.85
2023-09-07T21:14:15.207Z,6.80
2023-09-07T21:16:42.512Z,6.95
2023-09-07T21:19:09.779Z,7.85
2023-09-07T21:21:37.048Z,7.03
2023-09-07T21:24:04.406Z,8.32
2023-09-07T21:26:31.617Z,8.60
2023-09-07T21:28:58.788Z,7.80
2023-09-07T21:31:26.163Z,8.73
2023-09-07T21:33:53.357Z,8.00
2023-09-07T21:36:20.562Z,7.33
2023-09-07T21:38:47.920Z,9.80
2023-09-07T21:41:16.824Z,10.90
2023-09-07T21:43:44.230Z,8.57
2023-09-07T21:46:11.480Z,8.23
2023-09-07T21:48:39.022Z,8.17
2023-09-07T21:51:06.511Z,8.00
2023-09-07T21:53:33.741Z,10.07
2023-09-07T21:56:01.121Z,8.70
2023-09-07T21:58:28.330Z,11.73
2023-09-07T22:00:55.829Z,8.37
2023-09-07T22:03:23.079Z,10.70
2023-09-07T22:05:56.689Z,8.60
2023-09-07T22:08:24.030Z,8.23
2023-09-07T22:10:51.212Z,8.33
2023-09-07T22:13:18.397Z,8.50
2023-09-07T22:15:45.586Z,10.30
2023-09-07T22:18:12.939Z,10.27
2023-09-07T22:20:40.177Z,8.57
2023-09-07T22:23:08.258Z,8.97
2023-09-07T22:25:35.509Z,8.90
2023-09-07T22:28:03.483Z,9.40
2023-09-07T22:30:30.708Z,9.63
2023-09-07T22:32:58.265Z,9.90
2023-09-07T22:35:25.591Z,9.00
2023-09-07T22:37:52.807Z,9.13
2023-09-07T22:40:20.119Z,11.67
2023-09-07T22:42:47.633Z,8.87
2023-09-07T22:45:15.364Z,9.67
2023-09-07T22:47:42.635Z,11.07
2023-09-07T22:50:10.474Z,10.77
2023-09-07T22:52:37.643Z,10.43
2023-09-07T22:55:06.059Z,11.40
2023-09-07T22:57:33.716Z,10.00
2023-09-07T23:00:01.310Z,10.53
2023-09-07T23:02:28.844Z,10.47
2023-09-07T23:04:56.430Z,10.67
2023-09-07T23:07:23.539Z,11.20
2023-09-07T23:09:51.424Z,9.67
2023-09-07T23:12:18.684Z,9.77
2023-09-07T23:14:45.984Z,10.13
2023-09-07T23:17:13.130Z,10.53
2023-09-07T23:19:40.357Z,11.23
2023-09-07T23:22:07.570Z,11.43
2023-09-07T23:24:34.817Z,10.83
2023-09-07T23:27:02.276Z,10.83
2023-09-07T23:29:29.522Z,9.27
2023-09-07T23:31:56.700Z,10.63
2023-09-07T23:34:23.890Z,10.40
2023-09-07T23:36:51.335Z,10.57
2023-09-07T23:39:18.525Z,10.40
2023-09-07T23:41:45.963Z,10.37
2023-09-07T23:44:13.380Z,10.50
2023-09-07T23:46:40.681Z,10.70
2023-09-07T23:49:08.026Z,10.77
2023-09-07T23:51:35.437Z,10.30
2023-09-07T23:54:02.708Z,12.27
2023-09-07T23:56:30.193Z,9.70
2023-09-07T23:58:57.312Z,10.67
